createdAt,value
2023-05-23T00:00:33.929Z,9.52
2023-05-23T00:03:42.093Z,10.27
2023-05-23T00:06:51.075Z,10.23
2023-05-23T00:09:56.587Z,10.63
2023-05-23T00:13:02.134Z,11.23
2023-05-23T00:16:09.909Z,10.73
2023-05-23T00:19:18.604Z,10.93
2023-05-23T00:22:23.880Z,9.98
2023-05-23T00:25:35.287Z,10.55
2023-05-23T00:28:41.804Z,10.07
2023-05-23T00:31:47.559Z,10.55
2023-05-23T00:34:56.537Z,10.57
2023-05-23T00:38:02.828Z,11.05
2023-05-23T00:41:08.488Z,10.73
2023-05-23T00:44:13.842Z,10.77
2023-05-23T00:47:19.416Z,11.27
2023-05-23T00:50:30.199Z,11.10
2023-05-23T00:53:36.720Z,10.98
2023-05-23T00:56:44.280Z,10.93
2023-05-23T00:59:50.580Z,11.63
2023-05-23T01:02:56.909Z,11.95
2023-05-23T01:06:05.769Z,11.90
2023-05-23T01:09:11.652Z,10.95
2023-05-23T01:12:20.930Z,11.88
2023-05-23T01:15:28.902Z,11.48
2023-05-23T01:18:38.613Z,12.18
2023-05-23T01:21:53.164Z,11.98
2023-05-23T01:25:00.679Z,11.95
2023-05-23T01:28:09.239Z,11.87
2023-05-23T01:31:16.728Z,13.00
2023-05-23T01:34:22.418Z,13.57
2023-05-23T01:37:30.148Z,14.23
2023-05-23T01:40:35.721Z,12.23
2023-05-23T01:43:44.002Z,13.40
2023-05-23T01:46:50.431Z,13.27
2023-05-23T01:49:56.797Z,13.70
2023-05-23T01:53:02.736Z,14.27
2023-05-23T01:56:08.324Z,13.15
2023-05-23T01:59:16.222Z,13.63
2023-05-23T02:05:27.709Z,15.07
2023-05-23T02:08:33.154Z,13.93
2023-05-23T02:11:38.883Z,13.20
2023-05-23T02:14:47.730Z,12.25
2023-05-23T02:20:58.568Z,13.52
2023-05-23T02:24:04.546Z,13.27
2023-05-23T02:27:10.232Z,12.18
2023-05-23T02:30:18.570Z,12.75
2023-05-23T02:33:23.956Z,12.70
2023-05-23T02:36:30.379Z,13.00
2023-05-23T02:39:35.957Z,13.05
2023-05-23T02:42:42.258Z,12.10
2023-05-23T02:45:50.596Z,11.82
2023-05-23T02:48:55.811Z,12.23
2023-05-23T02:52:01.297Z,12.45
2023-05-23T02:55:07.299Z,11.75
2023-05-23T02:58:18.632Z,11.95
2023-05-23T03:01:26.778Z,11.82
2023-05-23T03:04:32.294Z,10.73
2023-05-23T03:07:38.467Z,11.38
2023-05-23T03:10:43.760Z,10.60
2023-05-23T03:13:49.195Z,10.55
2023-05-23T03:16:58.147Z,10.70
2023-05-23T03:20:05.050Z,11.07
2023-05-23T03:23:11.019Z,10.65
2023-05-23T03:26:16.599Z,10.98
2023-05-23T03:29:22.202Z,10.35
2023-05-23T03:32:30.390Z,10.75
2023-05-23T03:35:35.990Z,10.77
2023-05-23T03:38:41.462Z,10.38
2023-05-23T03:41:47.025Z,10.60
2023-05-23T03:44:53.528Z,10.68
2023-05-23T03:48:03.480Z,10.85
2023-05-23T03:51:09.429Z,11.48
2023-05-23T03:54:15.331Z,10.00
2023-05-23T03:57:20.849Z,10.00
2023-05-23T04:00:26.948Z,10.02
2023-05-23T04:03:35.968Z,10.85
2023-05-23T04:06:42.985Z,10.07
2023-05-23T04:09:48.193Z,9.93
2023-05-23T04:12:53.903Z,9.45
2023-05-23T04:15:59.913Z,9.88
2023-05-23T04:19:08.410Z,9.45
2023-05-23T04:22:14.515Z,10.73
2023-05-23T04:25:20.696Z,9.48
2023-05-23T04:28:40.677Z,9.98
2023-05-23T04:31:46.849Z,9.75
2023-05-23T04:34:57.132Z,9.43
2023-05-23T04:38:04.580Z,9.32
2023-05-23T04:41:11.004Z,11.32
2023-05-23T04:44:38.126Z,9.60
2023-05-23T04:47:50.052Z,10.10
2023-05-23T04:51:12.157Z,10.50
2023-05-23T04:54:26.973Z,10.55
2023-05-23T04:57:33.839Z,10.35
2023-05-23T05:00:40.698Z,9.98
2023-05-23T05:03:48.029Z,10.20
2023-05-23T05:06:56.175Z,10.00
2023-05-23T05:10:01.915Z,10.02
2023-05-23T05:13:09.353Z,10.40
2023-05-23T05:16:27.718Z,13.98
2023-05-23T05:19:33.367Z,12.20
2023-05-23T05:22:43.608Z,11.25
2023-05-23T05:25:51.022Z,9.65
2023-05-23T05:28:57.500Z,10.45
2023-05-23T05:32:03.769Z,9.38
2023-05-23T05:35:10.613Z,13.63
2023-05-23T05:38:19.025Z,10.93
2023-05-23T05:41:25.348Z,10.85
2023-05-23T05:44:32.220Z,10.57
2023-05-23T05:47:39.122Z,8.77
2023-05-23T05:50:45.835Z,8.27
2023-05-23T05:53:54.195Z,7.18
2023-05-23T06:00:12.234Z,6.80
2023-05-23T06:03:24.922Z,6.85
2023-05-23T06:06:33.008Z,6.43
2023-05-23T06:09:40.976Z,10.95
2023-05-23T06:15:51.567Z,6.95
2023-05-23T06:18:57.502Z,6.13
2023-05-23T06:22:06.251Z,6.63
2023-05-23T06:25:14.649Z,6.82
2023-05-23T06:31:24.825Z,6.68
2023-05-23T06:34:30.221Z,6.25
2023-05-23T06:37:35.963Z,6.13
2023-05-23T06:40:44.170Z,6.95
2023-05-23T06:43:50.085Z,6.65
2023-05-23T06:47:03.234Z,6.85
2023-05-23T06:50:09.150Z,6.47
2023-05-23T06:53:15.660Z,6.13
2023-05-23T06:56:27.725Z,6.20
2023-05-23T06:59:36.650Z,6.25
2023-05-23T07:02:43.101Z,6.05
2023-05-23T07:05:49.055Z,6.20
2023-05-23T07:08:56.474Z,5.82
2023-05-23T07:12:06.405Z,5.20
2023-05-23T07:15:15.494Z,6.00
2023-05-23T07:18:32.488Z,5.70
2023-05-23T07:21:38.463Z,5.43
2023-05-23T07:24:45.543Z,5.00
2023-05-23T07:27:55.253Z,5.20
2023-05-23T07:31:01.264Z,4.63
2023-05-23T07:34:08.333Z,5.13
2023-05-23T07:37:21.859Z,5.68
2023-05-23T07:40:27.592Z,4.65
2023-05-23T07:43:36.031Z,4.88
2023-05-23T07:46:41.730Z,5.10
2023-05-23T07:49:47.999Z,4.85
2023-05-23T07:52:54.414Z,4.85
2023-05-23T07:56:06.160Z,4.75
2023-05-23T07:59:18.201Z,4.57
2023-05-23T08:02:27.127Z,4.30
2023-05-23T08:05:32.627Z,4.82
2023-05-23T08:08:38.925Z,4.80
2023-05-23T08:14:54.248Z,4.15
2023-05-23T08:18:11.835Z,4.20
2023-05-23T08:21:17.104Z,4.18
2023-05-23T08:24:22.562Z,3.97
2023-05-23T08:27:28.596Z,4.00
2023-05-23T08:30:40.599Z,3.90
2023-05-23T08:33:46.322Z,4.20
2023-05-23T08:36:53.037Z,4.50
2023-05-23T08:43:31.175Z,4.38
2023-05-23T08:46:41.714Z,4.95
2023-05-23T08:49:48.503Z,5.20
2023-05-23T08:52:57.948Z,5.73
2023-05-23T08:56:05.922Z,5.40
2023-05-23T08:59:19.536Z,5.47
2023-05-23T09:02:28.238Z,5.53
2023-05-23T09:05:42.414Z,4.57
2023-05-23T09:08:48.929Z,4.93
2023-05-23T09:11:58.702Z,4.95
2023-05-23T09:15:06.624Z,4.85
2023-05-23T09:18:14.816Z,4.50
2023-05-23T09:21:20.507Z,4.55
2023-05-23T09:24:42.008Z,4.65
2023-05-23T09:27:48.978Z,5.03
2023-05-23T09:31:00.936Z,4.47
2023-05-23T09:34:11.308Z,4.85
2023-05-23T09:37:19.742Z,4.35
2023-05-23T09:40:25.663Z,4.13
2023-05-23T09:43:37.508Z,4.00
2023-05-23T09:46:43.250Z,4.30
2023-05-23T09:49:51.866Z,4.70
2023-05-23T09:52:58.505Z,4.28
2023-05-23T09:56:05.480Z,4.15
2023-05-23T09:59:11.677Z,4.35
2023-05-23T10:02:21.171Z,3.75
2023-05-23T10:05:34.390Z,3.60
2023-05-23T10:08:40.292Z,3.85
2023-05-23T10:12:00.680Z,2.97
2023-05-23T10:15:07.744Z,2.92
2023-05-23T10:18:15.627Z,3.15
2023-05-23T10:24:29.912Z,4.18
2023-05-23T10:27:35.604Z,4.00
2023-05-23T10:30:41.952Z,3.95
2023-05-23T10:33:51.771Z,3.90
2023-05-23T10:37:00.873Z,4.43
2023-05-23T10:40:12.042Z,4.10
2023-05-23T10:43:22.101Z,3.90
2023-05-23T10:46:33.216Z,3.80
2023-05-23T10:49:42.393Z,4.60
2023-05-23T10:52:48.231Z,3.50
2023-05-23T10:55:59.458Z,4.28
2023-05-23T10:59:04.753Z,4.65
2023-05-23T11:02:14.666Z,4.70
2023-05-23T11:05:25.026Z,4.72
2023-05-23T11:08:46.268Z,4.28
2023-05-23T11:12:03.834Z,5.45
2023-05-23T11:15:24.622Z,4.88
2023-05-23T11:18:31.505Z,5.13
2023-05-23T11:21:37.234Z,5.13
2023-05-23T11:24:53.173Z,4.82
2023-05-23T11:28:02.129Z,4.90
2023-05-23T11:31:07.629Z,6.28
2023-05-23T11:34:14.345Z,5.43
2023-05-23T11:37:19.765Z,6.57
2023-05-23T11:40:29.425Z,5.95
2023-05-23T11:43:37.811Z,6.57
2023-05-23T11:49:49.343Z,5.85
2023-05-23T11:52:55.205Z,6.72
2023-05-23T11:56:01.401Z,7.65
2023-05-23T11:59:09.804Z,8.80
2023-05-23T12:05:20.379Z,8.20
2023-05-23T12:08:25.574Z,8.35
2023-05-23T12:11:34.670Z,8.90
2023-05-23T12:14:45.088Z,9.07
2023-05-23T12:17:51.414Z,8.50
2023-05-23T12:20:56.597Z,9.93
2023-05-23T12:24:02.026Z,10.77
2023-05-23T12:31:20.374Z,10.18
2023-05-23T12:34:25.532Z,9.98
2023-05-23T12:37:31.193Z,10.05
2023-05-23T12:40:36.691Z,9.20
2023-05-23T12:43:43.090Z,9.52
2023-05-23T12:46:51.414Z,10.55
2023-05-23T12:49:57.193Z,11.15
2023-05-23T12:53:02.580Z,9.95
2023-05-23T12:56:08.528Z,8.20
2023-05-23T12:59:14.211Z,9.25
2023-05-23T13:02:22.492Z,8.13
2023-05-23T13:08:33.699Z,8.48
2023-05-23T13:11:39.498Z,8.57
2023-05-23T13:14:45.036Z,7.85
2023-05-23T13:17:53.176Z,7.47
2023-05-23T13:20:58.611Z,7.95
2023-05-23T13:24:04.187Z,9.10
2023-05-23T13:27:09.984Z,9.07
2023-05-23T13:30:15.665Z,11.38
2023-05-23T13:33:24.856Z,11.40
2023-05-23T13:36:30.464Z,11.82
2023-05-23T13:39:36.113Z,10.13
2023-05-23T13:42:41.637Z,9.88
2023-05-23T13:45:47.808Z,10.82
2023-05-23T13:48:55.681Z,9.60
2023-05-23T13:52:01.436Z,10.70
2023-05-23T13:55:07.059Z,10.05
2023-05-23T13:58:12.818Z,9.02
2023-05-23T14:01:18.631Z,8.77
2023-05-23T14:04:26.518Z,8.05
2023-05-23T14:07:32.443Z,9.82
2023-05-23T14:10:37.891Z,8.75
2023-05-23T14:13:43.590Z,9.02
2023-05-23T14:16:49.058Z,10.88
2023-05-23T14:19:57.230Z,10.35
2023-05-23T14:23:02.921Z,9.70
2023-05-23T14:26:08.773Z,11.50
2023-05-23T14:29:14.181Z,10.50
2023-05-23T14:32:19.718Z,11.13
2023-05-23T14:35:29.847Z,11.18
2023-05-23T14:38:35.514Z,11.50
2023-05-23T14:41:40.907Z,11.85
2023-05-23T14:44:46.341Z,11.02
2023-05-23T14:47:51.887Z,12.05
2023-05-23T14:51:02.083Z,11.25
2023-05-23T14:54:07.946Z,11.75
2023-05-23T14:57:13.501Z,10.13
2023-05-23T15:00:19.824Z,10.50
2023-05-23T15:03:25.561Z,11.60
2023-05-23T15:06:33.570Z,11.27
2023-05-23T15:09:39.492Z,11.43
2023-05-23T15:12:45.056Z,11.20
2023-05-23T15:15:50.969Z,10.65
2023-05-23T15:18:56.333Z,10.30
2023-05-23T15:22:04.276Z,9.93
2023-05-23T15:28:15.119Z,10.30
2023-05-23T15:31:21.301Z,8.80
2023-05-23T15:34:26.778Z,11.00
2023-05-23T15:37:34.796Z,9.55
2023-05-23T15:40:40.245Z,10.20
2023-05-23T15:43:46.436Z,10.18
2023-05-23T15:46:51.784Z,9.55
2023-05-23T15:49:57.079Z,9.75
2023-05-23T15:53:05.086Z,9.32
2023-05-23T15:56:10.743Z,10.75
2023-05-23T15:59:15.887Z,10.48
2023-05-23T16:02:22.356Z,9.77
2023-05-23T16:05:27.684Z,10.57
2023-05-23T16:08:36.172Z,9.98
2023-05-23T16:11:41.667Z,10.27
2023-05-23T16:14:47.273Z,10.70
2023-05-23T16:17:52.689Z,10.25
2023-05-23T16:20:58.249Z,10.20
2023-05-23T16:24:07.953Z,9.98
2023-05-23T16:27:13.570Z,9.35
2023-05-23T16:30:18.989Z,8.55
2023-05-23T16:33:24.838Z,8.55
2023-05-23T16:36:30.374Z,8.27
2023-05-23T16:39:39.344Z,8.32
2023-05-23T16:42:44.655Z,8.80
2023-05-23T16:45:52.791Z,9.48
2023-05-23T16:48:59.278Z,9.27
2023-05-23T16:52:04.788Z,9.05
2023-05-23T16:55:13.147Z,8.63
2023-05-23T16:58:20.962Z,8.30
2023-05-23T17:01:27.170Z,8.27
2023-05-23T17:04:32.363Z,8.32
2023-05-23T17:07:38.195Z,8.38
2023-05-23T17:10:46.480Z,11.15
2023-05-23T17:13:52.446Z,12.32
2023-05-23T17:16:58.162Z,12.55
2023-05-23T17:20:04.235Z,12.50
2023-05-23T17:23:11.190Z,13.43
2023-05-23T17:26:19.821Z,11.35
2023-05-23T17:29:25.425Z,10.93
2023-05-23T17:32:31.115Z,11.18
2023-05-23T17:35:36.813Z,10.15
2023-05-23T17:38:42.400Z,9.85
2023-05-23T17:41:50.475Z,10.68
2023-05-23T17:44:56.046Z,7.85
2023-05-23T17:48:03.983Z,7.70
2023-05-23T17:51:09.724Z,8.27
2023-05-23T17:54:15.232Z,8.00
2023-05-23T17:57:23.565Z,8.18
2023-05-23T18:00:29.304Z,8.23
2023-05-23T18:03:36.271Z,8.38
2023-05-23T18:06:41.746Z,8.70
2023-05-23T18:09:47.464Z,8.68
2023-05-23T18:12:55.819Z,8.48
2023-05-23T18:16:01.119Z,10.13
2023-05-23T18:19:06.843Z,9.35
2023-05-23T18:22:12.363Z,9.50
2023-05-23T18:25:20.175Z,9.10
2023-05-23T18:28:29.050Z,9.40
2023-05-23T18:31:34.689Z,9.18
2023-05-23T18:34:39.913Z,8.73
2023-05-23T18:37:45.457Z,8.95
2023-05-23T18:40:51.013Z,8.82
2023-05-23T18:43:59.124Z,9.07
2023-05-23T18:47:04.644Z,9.82
2023-05-23T18:50:10.682Z,10.13
2023-05-23T18:53:16.266Z,9.38
2023-05-23T18:56:22.409Z,10.10
2023-05-23T18:59:30.638Z,10.55
2023-05-23T19:05:41.787Z,10.68
2023-05-23T19:08:47.276Z,9.98
2023-05-23T19:11:53.340Z,9.88
2023-05-23T19:15:01.964Z,9.57
2023-05-23T19:18:09.635Z,9.77
2023-05-23T19:21:15.123Z,9.07
2023-05-23T19:24:20.514Z,9.05
2023-05-23T19:27:25.803Z,9.75
2023-05-23T19:30:33.755Z,9.13
2023-05-23T19:33:39.155Z,9.00
2023-05-23T19:36:44.840Z,12.73
2023-05-23T19:39:50.428Z,9.32
2023-05-23T19:42:56.031Z,8.90
2023-05-23T19:46:04.084Z,8.35
2023-05-23T19:49:09.722Z,8.00
2023-05-23T19:52:15.014Z,8.35
2023-05-23T19:55:20.630Z,8.65
2023-05-23T19:58:26.277Z,8.75
2023-05-23T20:01:34.307Z,7.47
2023-05-23T20:04:39.807Z,7.50
2023-05-23T20:07:45.257Z,7.95
2023-05-23T20:10:50.827Z,6.43
2023-05-23T20:13:56.741Z,6.32
2023-05-23T20:17:04.898Z,6.63
2023-05-23T20:20:11.087Z,6.93
2023-05-23T20:23:16.415Z,6.60
2023-05-23T20:26:22.714Z,6.65
2023-05-23T20:29:28.044Z,6.55
2023-05-23T20:32:36.463Z,7.20
2023-05-23T20:35:42.189Z,6.38
2023-05-23T20:38:48.130Z,6.10
2023-05-23T20:41:53.997Z,6.90
2023-05-23T20:45:00.300Z,7.18
2023-05-23T20:48:08.346Z,6.15
2023-05-23T20:51:13.945Z,6.45
2023-05-23T20:54:19.511Z,6.20
2023-05-23T20:57:25.078Z,6.32
2023-05-23T21:00:30.852Z,6.22
2023-05-23T21:03:39.025Z,6.78
2023-05-23T21:06:44.480Z,6.15
2023-05-23T21:09:50.356Z,6.57
2023-05-23T21:12:55.989Z,6.40
2023-05-23T21:16:01.448Z,6.32
2023-05-23T21:19:09.486Z,9.27
2023-05-23T21:22:15.233Z,5.90
2023-05-23T21:25:20.677Z,6.15
2023-05-23T21:28:25.968Z,6.43
2023-05-23T21:31:40.984Z,6.47
2023-05-23T21:34:49.964Z,7.25
2023-05-23T21:37:55.877Z,6.50
2023-05-23T21:41:01.131Z,7.70
2023-05-23T21:44:06.355Z,6.70
2023-05-23T21:47:11.877Z,6.50
2023-05-23T21:50:20.234Z,6.53
2023-05-23T21:53:25.857Z,6.47
2023-05-23T21:56:31.423Z,6.80
2023-05-23T21:59:36.546Z,7.13
2023-05-23T22:02:42.335Z,7.70
2023-05-23T22:05:50.278Z,7.13
2023-05-23T22:08:55.732Z,7.70
2023-05-23T22:12:01.337Z,6.82
2023-05-23T22:15:07.909Z,6.60
2023-05-23T22:18:13.997Z,7.57
2023-05-23T22:21:22.311Z,7.47
2023-05-23T22:24:27.968Z,7.72
2023-05-23T22:27:34.532Z,7.43
2023-05-23T22:30:40.364Z,7.07
2023-05-23T22:33:46.202Z,7.95
2023-05-23T22:36:53.892Z,7.78
2023-05-23T22:39:59.137Z,8.23
2023-05-23T22:43:05.094Z,8.77
2023-05-23T22:46:10.361Z,8.10
2023-05-23T22:49:15.850Z,7.57
2023-05-23T22:52:23.818Z,8.10
2023-05-23T22:55:29.359Z,8.40
2023-05-23T22:58:34.910Z,7.32
2023-05-23T23:01:40.737Z,8.50
2023-05-23T23:04:46.032Z,8.38
2023-05-23T23:07:54.127Z,8.68
2023-05-23T23:11:00.120Z,8.40
2023-05-23T23:14:06.129Z,8.15
2023-05-23T23:17:13.839Z,9.27
2023-05-23T23:20:19.991Z,9.00
2023-05-23T23:23:27.967Z,9.18
2023-05-23T23:26:33.722Z,8.75
2023-05-23T23:29:39.169Z,8.85
2023-05-23T23:32:44.469Z,9.70
2023-05-23T23:35:52.309Z,9.18
2023-05-23T23:39:00.191Z,10.18
2023-05-23T23:42:05.448Z,10.07
2023-05-23T23:45:11.622Z,9.73
2023-05-23T23:48:16.974Z,9.55
2023-05-23T23:51:22.498Z,9.35
2023-05-23T23:54:30.670Z,9.07
2023-05-23T23:57:36.300Z,8.50
